Time;durP1;ratioP1;P1;durP2;ratioP2;P2;SDS_P1;SDS_P2;PMS_P1;PMS_P2;Temp;Humidity;BMP_temperature;BMP_pressure;BME280_temperature;BME280_humidity;BME280_pressure;Samples;Min_cycle;Max_cycle;Signal;HPM_P1;HPM_P2
2021/05/04 00:02:00;;;;;;;18.98;13.25;;;;;;;5.36;78.41;94623.96;1751360;81;21110;-51
2021/05/04 00:04:28;;;;;;;19.17;14.43;;;;;;;5.32;78.42;94626.77;1750523;80;21495;-51
2021/05/04 00:06:56;;;;;;;18.92;15.58;;;;;;;5.30;78.59;94618.82;1750486;82;21098;-50
2021/05/04 00:09:24;;;;;;;20.97;16.02;;;;;;;5.30;78.81;94625.06;1750560;82;21070;-50
2021/05/04 00:11:52;;;;;;;23.87;15.65;;;;;;;5.32;79.02;94616.45;1750558;82;21150;-51
2021/05/04 00:14:20;;;;;;;22.82;15.32;;;;;;;5.41;79.24;94627.59;1750591;80;21118;-51
2021/05/04 00:16:48;;;;;;;17.05;13.85;;;;;;;5.51;79.02;94630.71;1750492;82;21274;-50
2021/05/04 00:19:16;;;;;;;18.30;14.58;;;;;;;5.56;78.86;94622.04;1750452;82;21830;-50
2021/05/04 00:21:44;;;;;;;20.40;15.08;;;;;;;5.58;78.77;94629.23;1750550;82;21079;-51
2021/05/04 00:24:12;;;;;;;17.42;15.23;;;;;;;5.60;78.80;94630.95;1750524;82;21141;-49
2021/05/04 00:26:40;;;;;;;23.05;16.37;;;;;;;5.68;79.01;94632.34;1750532;82;21146;-51
2021/05/04 00:29:08;;;;;;;22.30;17.37;;;;;;;5.71;78.94;94625.47;1750572;82;21207;-51
2021/05/04 00:31:37;;;;;;;20.60;17.42;;;;;;;5.76;78.93;94625.58;1750569;82;21222;-51
2021/05/04 00:34:05;;;;;;;21.55;16.40;;;;;;;5.78;78.78;94629.45;1750544;81;21058;-50
2021/05/04 00:36:33;;;;;;;22.62;17.42;;;;;;;5.83;78.75;94625.47;1750515;82;21558;-50
2021/05/04 00:39:01;;;;;;;20.55;15.90;;;;;;;5.88;78.31;94623.61;1750512;82;21141;-49
2021/05/04 00:41:29;;;;;;;19.65;15.95;;;;;;;5.92;78.34;94617.48;1750558;80;21602;-51
2021/05/04 00:43:57;;;;;;;23.10;17.55;;;;;;;5.98;78.22;94610.36;1750433;80;21082;-50
2021/05/04 00:46:25;;;;;;;17.42;12.63;;;;;;;6.02;77.97;94605.59;1750521;81;21078;-50
2021/05/04 00:48:53;;;;;;;14.95;13.18;;;;;;;6.04;77.73;94606.72;1750527;82;21130;-51
2021/05/04 00:51:21;;;;;;;14.93;12.75;;;;;;;6.03;77.46;94618.83;1750539;82;21126;-50
2021/05/04 00:53:49;;;;;;;17.00;13.85;;;;;;;5.96;77.33;94620.31;1750637;80;21270;-50
2021/05/04 00:56:18;;;;;;;17.62;13.28;;;;;;;5.92;77.34;94618.26;1721331;82;21075;-49
2021/05/04 00:58:48;;;;;;;16.97;13.93;;;;;;;5.88;77.29;94620.87;1750416;82;21091;-50
2021/05/04 01:01:16;;;;;;;19.30;14.63;;;;;;;5.81;77.58;94619.66;1750379;81;21058;-50
2021/05/04 01:03:44;;;;;;;19.67;14.83;;;;;;;5.78;77.60;94617.75;1750428;80;21066;-51
2021/05/04 01:06:12;;;;;;;20.17;15.72;;;;;;;5.75;78.07;94612.52;1750512;82;21215;-50
2021/05/04 01:08:40;;;;;;;17.55;15.30;;;;;;;5.79;78.04;94605.67;1750519;82;21122;-50
2021/05/04 01:11:08;;;;;;;23.95;16.97;;;;;;;5.79;77.84;94611.87;1750526;82;21185;-52
2021/05/04 01:13:37;;;;;;;22.98;15.98;;;;;;;5.76;77.91;94607.23;1750603;81;21066;-50
2021/05/04 01:16:05;;;;;;;18.30;15.23;;;;;;;5.78;77.78;94609.56;1750532;80;21073;-51
2021/05/04 01:18:33;;;;;;;20.15;15.13;;;;;;;5.77;77.68;94610.14;1750479;82;21201;-51
2021/05/04 01:21:01;;;;;;;17.70;15.18;;;;;;;5.75;77.55;94607.67;1750446;82;21129;-50
2021/05/04 01:23:29;;;;;;;18.82;13.40;;;;;;;5.73;77.40;94610.02;1750445;80;21157;-50
2021/05/04 01:25:57;;;;;;;15.95;13.68;;;;;;;5.74;77.50;94611.56;1750487;80;21066;-49
2021/05/04 01:28:25;;;;;;;19.57;14.20;;;;;;;5.80;77.49;94599.77;1750525;82;21055;-50
2021/05/04 01:30:53;;;;;;;16.12;12.95;;;;;;;5.84;77.29;94598.34;1750507;82;21206;-50
2021/05/04 01:33:21;;;;;;;17.07;13.28;;;;;;;5.87;77.12;94601.59;1750449;82;21153;-51
2021/05/04 01:35:50;;;;;;;16.97;12.82;;;;;;;5.86;77.03;94597.33;1750463;80;21174;-51
2021/05/04 01:38:17;;;;;;;13.95;11.53;;;;;;;5.85;77.35;94601.25;1750469;81;21166;-50
2021/05/04 01:40:46;;;;;;;12.45;10.58;;;;;;;5.88;77.17;94597.67;1750513;82;21071;-50
2021/05/04 01:43:14;;;;;;;12.33;10.72;;;;;;;5.79;77.21;94597.48;1750470;80;21205;-50
2021/05/04 01:45:42;;;;;;;12.82;10.45;;;;;;;5.69;77.44;94597.83;1750428;82;21150;-49
2021/05/04 01:48:10;;;;;;;11.73;10.53;;;;;;;5.67;77.72;94596.13;1750466;82;21126;-50
2021/05/04 01:50:38;;;;;;;12.43;11.08;;;;;;;5.66;77.86;94601.98;1750399;80;21094;-50
2021/05/04 01:53:06;;;;;;;16.20;13.18;;;;;;;5.66;78.01;94604.71;1750531;81;21502;-50
2021/05/04 01:55:35;;;;;;;16.95;14.98;;;;;;;5.61;78.17;94612.03;1750466;82;21405;-51
2021/05/04 01:58:04;;;;;;;21.95;15.78;;;;;;;5.57;78.54;94613.45;1750380;81;21078;-51
2021/05/04 02:00:32;;;;;;;19.17;14.47;;;;;;;5.56;78.56;94622.82;1750446;81;21300;-51
2021/05/04 02:03:00;;;;;;;17.95;13.38;;;;;;;5.54;78.71;94617.59;1723300;81;21176;-51
2021/05/04 02:05:29;;;;;;;19.50;13.55;;;;;;;5.53;78.78;94613.33;1723469;83;21212;-50
2021/05/04 02:07:57;;;;;;;18.17;13.78;;;;;;;5.49;78.98;94597.05;1723445;83;21363;-51
2021/05/04 02:10:25;;;;;;;15.15;12.35;;;;;;;5.47;79.42;94611.70;1723389;83;21109;-51
2021/05/04 02:12:52;;;;;;;18.15;12.90;;;;;;;5.50;79.63;94611.44;1723443;82;21156;-50
2021/05/04 02:15:20;;;;;;;19.57;14.00;;;;;;;5.47;79.60;94610.92;1723406;83;21156;-50
2021/05/04 02:17:48;;;;;;;17.07;13.38;;;;;;;5.47;79.76;94604.09;1723446;82;21243;-50
2021/05/04 02:20:16;;;;;;;17.12;12.78;;;;;;;5.52;79.83;94605.75;1723378;83;21391;-51
2021/05/04 02:22:44;;;;;;;14.87;12.13;;;;;;;5.62;79.78;94612.20;1723365;83;21092;-49
2021/05/04 02:25:14;;;;;;;17.52;12.90;;;;;;;5.72;79.41;94611.22;1723422;83;21144;-49
2021/05/04 02:27:41;;;;;;;16.73;12.45;;;;;;;5.70;79.31;94604.05;1723518;83;21175;-51
2021/05/04 02:30:11;;;;;;;15.40;12.20;;;;;;;5.66;79.35;94607.44;1723395;82;21209;-49
2021/05/04 02:32:39;;;;;;;16.27;12.35;;;;;;;5.62;79.44;94595.83;1723418;83;21957;-49
2021/05/04 02:35:09;;;;;;;15.68;12.00;;;;;;;5.64;79.61;94608.45;1723394;83;21117;-51
2021/05/04 02:37:37;;;;;;;13.72;11.28;;;;;;;5.71;79.57;94599.55;1723525;83;21117;-50
2021/05/04 02:40:06;;;;;;;13.93;10.70;;;;;;;5.77;79.37;94598.47;1723536;82;21503;-51
2021/05/04 02:42:34;;;;;;;13.75;11.78;;;;;;;5.81;79.05;94609.50;1723553;83;21084;-51
2021/05/04 02:45:03;;;;;;;13.13;11.12;;;;;;;5.74;78.93;94611.56;1723572;83;21347;-50
2021/05/04 02:47:30;;;;;;;13.15;10.20;;;;;;;5.70;79.20;94612.23;1723502;83;21160;-50
2021/05/04 02:49:58;;;;;;;12.30;11.10;;;;;;;5.64;79.13;94616.64;1723569;83;21097;-50
2021/05/04 02:52:26;;;;;;;10.72;9.63;;;;;;;5.57;79.33;94621.63;1723566;83;21096;-51
2021/05/04 02:54:54;;;;;;;10.40;9.08;;;;;;;5.58;79.42;94621.05;1723600;83;21076;-50
2021/05/04 02:57:22;;;;;;;11.00;9.23;;;;;;;5.55;79.46;94623.23;1723509;83;21267;-50
2021/05/04 02:59:50;;;;;;;13.50;11.12;;;;;;;5.55;79.51;94621.86;1723467;83;21152;-51
2021/05/04 03:02:18;;;;;;;12.00;9.50;;;;;;;5.57;79.71;94618.15;1739999;81;21094;-51
2021/05/04 03:04:45;;;;;;;9.85;8.85;;;;;;;5.60;79.63;94628.98;1750539;80;21098;-50
2021/05/04 03:07:13;;;;;;;12.63;11.33;;;;;;;5.64;79.44;94628.92;1750594;80;21091;-50
2021/05/04 03:09:43;;;;;;;12.63;10.20;;;;;;;5.61;79.25;94629.77;1750570;82;21202;-50
2021/05/04 03:12:11;;;;;;;14.13;11.85;;;;;;;5.57;79.42;94634.52;1750532;82;21145;-50
2021/05/04 03:14:39;;;;;;;16.52;12.45;;;;;;;5.51;79.53;94633.44;1750569;81;21177;-50
2021/05/04 03:17:07;;;;;;;14.10;12.33;;;;;;;5.47;79.76;94635.47;1750613;81;21058;-49
2021/05/04 03:19:36;;;;;;;14.38;11.80;;;;;;;5.45;79.85;94625.57;1750657;81;21397;-51
2021/05/04 03:22:03;;;;;;;16.82;11.63;;;;;;;5.43;79.90;94632.80;1750570;82;21144;-52
2021/05/04 03:24:31;;;;;;;13.62;9.78;;;;;;;5.43;80.08;94626.58;1750493;82;21162;-50
2021/05/04 03:26:59;;;;;;;11.22;10.05;;;;;;;5.42;79.91;94625.05;1750575;82;21205;-51
2021/05/04 03:29:27;;;;;;;14.98;11.05;;;;;;;5.43;79.87;94623.86;1750612;82;21075;-57
2021/05/04 03:31:56;;;;;;;14.28;11.00;;;;;;;5.44;79.73;94630.85;1750653;80;21059;-50
2021/05/04 03:34:25;;;;;;;11.80;9.98;;;;;;;5.43;79.90;94632.05;1750596;80;21188;-49
2021/05/04 03:36:53;;;;;;;10.72;9.63;;;;;;;5.48;80.00;94637.01;1750470;81;21563;-50
2021/05/04 03:39:21;;;;;;;16.82;10.58;;;;;;;5.50;79.71;94642.81;1750606;82;21586;-50
2021/05/04 03:41:49;;;;;;;10.85;9.33;;;;;;;5.45;79.70;94639.21;1750566;81;21190;-51
2021/05/04 03:44:17;;;;;;;13.43;11.10;;;;;;;5.43;80.07;94637.50;1750612;80;21066;-51
2021/05/04 03:46:45;;;;;;;11.33;10.10;;;;;;;5.43;79.97;94640.22;1750571;82;21166;-50
2021/05/04 03:49:13;;;;;;;13.38;11.93;;;;;;;5.43;80.10;94641.59;1750456;82;21145;-51
2021/05/04 03:51:41;;;;;;;14.60;12.03;;;;;;;5.39;80.26;94644.98;1750583;81;21216;-50
2021/05/04 03:54:09;;;;;;;15.10;12.30;;;;;;;5.39;80.49;94644.37;1750650;82;21166;-50
2021/05/04 03:56:37;;;;;;;13.68;11.95;;;;;;;5.43;80.52;94647.05;1750646;80;21507;-51
2021/05/04 03:59:06;;;;;;;14.28;11.08;;;;;;;5.46;80.44;94647.56;1750551;82;21349;-50
2021/05/04 04:01:36;;;;;;;16.32;12.20;;;;;;;5.48;80.39;94656.10;1750788;81;21078;-51
2021/05/04 04:04:04;;;;;;;18.90;12.18;;;;;;;5.47;80.51;94662.75;1767425;80;21206;-50
2021/05/04 04:06:32;;;;;;;15.50;11.63;;;;;;;5.50;80.63;94661.91;1767498;81;21126;-51
2021/05/04 04:09:00;;;;;;;16.07;12.80;;;;;;;5.53;80.36;94655.62;1767521;81;21562;-51
2021/05/04 04:11:28;;;;;;;14.68;12.93;;;;;;;5.57;80.45;94659.83;1767493;81;21380;-50
2021/05/04 04:13:57;;;;;;;16.75;11.60;;;;;;;5.62;80.19;94657.22;1767444;80;21075;-50
2021/05/04 04:16:26;;;;;;;14.10;10.85;;;;;;;5.69;80.40;94661.18;1767537;80;21058;-51
2021/05/04 04:18:54;;;;;;;14.25;11.22;;;;;;;5.78;80.41;94660.05;1767473;81;21131;-52
2021/05/04 04:21:22;;;;;;;14.03;11.53;;;;;;;5.88;80.09;94660.45;1767581;81;21563;-50
2021/05/04 04:23:50;;;;;;;15.58;12.75;;;;;;;5.95;79.83;94661.70;1767504;80;21275;-51
2021/05/04 04:26:18;;;;;;;16.87;11.93;;;;;;;6.02;79.66;94664.29;1767449;81;21083;-52
2021/05/04 04:28:46;;;;;;;18.82;12.85;;;;;;;6.09;79.59;94657.31;1767496;81;21063;-51
2021/05/04 04:31:14;;;;;;;14.23;12.00;;;;;;;6.18;79.79;94654.80;1767466;81;21175;-51
2021/05/04 04:33:42;;;;;;;16.75;14.07;;;;;;;6.31;79.57;94662.55;1767507;81;21142;-50
2021/05/04 04:36:11;;;;;;;19.02;13.18;;;;;;;6.45;79.21;94662.23;1767479;80;21143;-50
2021/05/04 04:38:39;;;;;;;15.13;10.68;;;;;;;6.60;78.73;94661.52;1767378;81;21169;-51
2021/05/04 04:41:07;;;;;;;12.18;9.93;;;;;;;6.68;77.89;94660.16;1767497;80;21079;-50
2021/05/04 04:43:35;;;;;;;11.50;9.90;;;;;;;6.67;77.53;94659.23;1767525;81;21075;-50
2021/05/04 04:46:03;;;;;;;11.08;9.30;;;;;;;6.70;77.56;94669.31;1767527;80;21103;-53
2021/05/04 04:48:31;;;;;;;9.95;8.63;;;;;;;6.71;77.38;94666.14;1767483;80;21193;-54
2021/05/04 04:50:59;;;;;;;8.75;7.85;;;;;;;6.76;77.19;94659.41;1767407;80;21823;-51
2021/05/04 04:53:27;;;;;;;11.10;9.28;;;;;;;6.86;77.21;94665.25;1767492;79;21039;-50
2021/05/04 04:55:55;;;;;;;11.18;7.72;;;;;;;6.96;77.00;94671.84;1767437;81;21504;-51
2021/05/04 04:58:23;;;;;;;7.25;6.55;;;;;;;7.00;76.50;94664.32;1767468;81;21083;-50
2021/05/04 05:00:52;;;;;;;6.92;6.33;;;;;;;6.99;75.73;94670.20;1767405;80;21197;-54
2021/05/04 05:03:23;;;;;;;6.95;6.35;;;;;;;6.90;75.46;94675.50;1749118;81;21181;-52
2021/05/04 05:05:51;;;;;;;7.53;6.42;;;;;;;6.84;75.36;94668.98;1764509;81;21575;-53
2021/05/04 05:08:19;;;;;;;7.87;6.22;;;;;;;6.78;75.14;94669.32;1764455;81;21198;-51
2021/05/04 05:10:47;;;;;;;8.68;6.83;;;;;;;6.72;75.24;94667.69;1764481;81;21116;-50
2021/05/04 05:13:15;;;;;;;13.60;10.32;;;;;;;6.81;75.39;94665.73;1764483;81;21359;-50
2021/05/04 05:15:43;;;;;;;10.48;8.23;;;;;;;6.85;75.10;94674.03;1764422;81;21111;-52
2021/05/04 05:18:11;;;;;;;7.75;6.80;;;;;;;6.88;74.98;94666.34;1764474;81;21142;-53
2021/05/04 05:20:39;;;;;;;7.55;6.78;;;;;;;6.97;75.15;94669.86;1764525;81;21899;-51
2021/05/04 05:23:08;;;;;;;9.00;7.15;;;;;;;7.08;75.35;94671.94;1764447;81;21083;-52
2021/05/04 05:25:36;;;;;;;17.10;9.98;;;;;;;7.26;74.86;94665.45;1764480;81;21508;-51
2021/05/04 05:28:05;;;;;;;64.87;31.95;;;;;;;7.34;74.12;94655.86;1764379;81;21111;-51
2021/05/04 05:30:34;;;;;;;36.83;20.05;;;;;;;7.46;74.01;94662.02;1764477;81;21131;-52
2021/05/04 05:33:02;;;;;;;51.33;27.55;;;;;;;7.58;73.46;94659.18;1764490;80;21139;-52
2021/05/04 05:35:30;;;;;;;46.63;26.73;;;;;;;7.65;73.24;94658.41;1764550;81;21169;-52
2021/05/04 05:37:58;;;;;;;30.05;19.85;;;;;;;7.67;72.30;94660.11;1764471;80;21142;-51
2021/05/04 05:40:26;;;;;;;9.85;7.90;;;;;;;7.67;72.28;94656.00;1764383;81;21114;-52
2021/05/04 05:42:55;;;;;;;6.50;5.90;;;;;;;7.68;72.04;94660.28;1764428;80;21066;-53
2021/05/04 05:45:23;;;;;;;6.10;5.53;;;;;;;7.70;71.76;94667.45;1764469;81;21131;-51
2021/05/04 05:47:51;;;;;;;5.47;5.03;;;;;;;7.78;71.35;94661.98;1764440;81;21131;-52
2021/05/04 05:50:20;;;;;;;7.10;5.67;;;;;;;7.84;70.92;94659.47;1764410;80;22357;-52
2021/05/04 05:52:48;;;;;;;6.00;5.40;;;;;;;7.85;70.55;94659.05;1764411;81;21484;-51
2021/05/04 05:55:16;;;;;;;5.90;5.40;;;;;;;7.92;70.84;94658.09;1764388;81;21508;-51
2021/05/04 05:57:44;;;;;;;5.95;5.45;;;;;;;8.02;70.68;94656.44;1764429;80;21079;-51
2021/05/04 06:00:16;;;;;;;5.80;5.15;;;;;;;8.21;70.03;94647.33;1764422;80;21118;-51
2021/05/04 06:02:50;;;;;;;6.05;5.20;;;;;;;8.38;69.00;94650.76;1763139;80;21449;-51
2021/05/04 06:05:15;;;;;;;5.15;4.72;;;;;;;8.48;67.86;94646.38;1758290;80;21095;-52
2021/05/04 06:07:43;;;;;;;5.72;5.22;;;;;;;8.50;67.39;94641.22;1758785;80;21095;-50
2021/05/04 06:10:12;;;;;;;5.40;5.00;;;;;;;8.53;67.25;94637.59;1758854;80;21170;-52
2021/05/04 06:12:40;;;;;;;5.22;4.72;;;;;;;8.58;66.06;94637.05;1758893;81;21143;-51
2021/05/04 06:15:11;;;;;;;5.05;4.60;;;;;;;8.62;64.87;94642.44;1758869;80;21199;-52
2021/05/04 06:17:38;;;;;;;5.42;5.03;;;;;;;8.68;64.35;94647.53;1759043;80;21084;-50
2021/05/04 06:20:09;;;;;;;6.60;5.42;;;;;;;8.80;63.83;94646.17;1759052;80;21456;-51
2021/05/04 06:22:37;;;;;;;8.00;5.42;;;;;;;8.96;63.08;94637.84;1758992;80;21484;-51
2021/05/04 06:25:07;;;;;;;6.00;4.97;;;;;;;9.06;62.57;94639.50;1758955;80;21059;-52
2021/05/04 06:27:34;;;;;;;5.53;5.03;;;;;;;9.13;62.42;94631.81;1758896;81;21524;-52
2021/05/04 06:30:06;;;;;;;10.63;6.55;;;;;;;9.22;61.81;94636.02;1758968;81;21163;-50
2021/05/04 06:32:34;;;;;;;5.65;5.08;;;;;;;9.32;61.18;94633.55;1759035;81;21579;-51
2021/05/04 06:35:03;;;;;;;5.97;5.42;;;;;;;9.45;60.15;94630.78;1758970;81;21127;-52
2021/05/04 06:37:31;;;;;;;5.72;5.22;;;;;;;9.58;59.05;94628.78;1758929;80;21134;-51
2021/05/04 06:39:59;;;;;;;15.60;6.10;;;;;;;9.67;57.24;94632.39;1758871;80;22133;-52
2021/05/04 06:42:28;;;;;;;7.20;4.85;;;;;;;9.74;58.02;94625.86;1758852;81;21147;-51
2021/05/04 06:44:56;;;;;;;11.12;4.62;;;;;;;9.82;55.56;94632.66;1758883;80;21063;-51
2021/05/04 06:47:24;;;;;;;6.78;4.42;;;;;;;9.91;54.44;94623.89;1758901;81;21056;-53
2021/05/04 06:49:52;;;;;;;4.83;4.42;;;;;;;10.05;53.71;94622.66;1758920;80;21153;-53
2021/05/04 06:52:21;;;;;;;4.47;4.10;;;;;;;10.24;52.08;94620.20;1758905;81;21155;-52
2021/05/04 06:54:50;;;;;;;8.15;4.53;;;;;;;10.43;50.39;94625.98;1758803;81;21611;-50
2021/05/04 06:57:18;;;;;;;6.33;4.72;;;;;;;10.55;48.99;94623.77;1758905;81;21094;-53
2021/05/04 06:59:47;;;;;;;5.92;4.53;;;;;;;10.63;48.76;94620.91;1758833;80;21099;-51
2021/05/04 07:02:15;;;;;;;6.12;4.40;;;;;;;10.68;48.05;94621.72;1758864;80;21084;-52
2021/05/04 07:04:44;;;;;;;4.65;4.20;;;;;;;10.73;47.58;94612.87;1758715;80;21182;-53
2021/05/04 07:07:12;;;;;;;7.35;4.62;;;;;;;10.82;47.30;94619.19;1758783;81;21174;-52
2021/05/04 07:09:42;;;;;;;20.37;5.05;;;;;;;10.93;47.38;94621.69;1758994;80;21143;-52
2021/05/04 07:12:10;;;;;;;12.07;5.53;;;;;;;10.93;47.45;94620.31;1759098;80;21260;-53
2021/05/04 07:14:40;;;;;;;7.30;4.22;;;;;;;10.91;47.64;94615.87;1758891;80;21187;-51
2021/05/04 07:17:08;;;;;;;4.90;4.40;;;;;;;10.96;47.24;94613.89;1758839;81;21197;-51
2021/05/04 07:19:39;;;;;;;8.80;4.50;;;;;;;11.08;47.39;94610.28;1758773;81;21083;-52
2021/05/04 07:22:09;;;;;;;6.15;3.87;;;;;;;11.18;46.13;94609.08;1758914;80;21076;-52
2021/05/04 07:24:38;;;;;;;4.10;3.80;;;;;;;11.30;45.66;94605.45;1758845;81;21103;-52
2021/05/04 07:27:06;;;;;;;5.70;3.87;;;;;;;11.29;43.08;94603.92;1758996;80;21496;-53
2021/05/04 07:29:38;;;;;;;5.12;4.28;;;;;;;11.25;43.20;94606.06;1758990;80;22086;-53
2021/05/04 07:32:06;;;;;;;4.05;3.75;;;;;;;11.30;43.47;94594.44;1758864;81;21059;-53
2021/05/04 07:34:34;;;;;;;5.78;4.12;;;;;;;11.44;43.13;94597.22;1758852;80;21198;-52
2021/05/04 07:37:03;;;;;;;4.53;4.10;;;;;;;11.42;43.50;94594.94;1758880;80;21143;-51
2021/05/04 07:39:31;;;;;;;4.20;3.70;;;;;;;11.41;43.23;94595.38;1758869;80;21551;-53
2021/05/04 07:41:59;;;;;;;4.45;4.05;;;;;;;11.37;43.30;94603.78;1759020;81;22269;-54
2021/05/04 07:44:27;;;;;;;4.55;3.55;;;;;;;11.45;43.36;94598.16;1758841;80;21084;-53
2021/05/04 07:46:55;;;;;;;6.97;3.77;;;;;;;11.60;41.92;94608.78;1758816;81;21071;-54
2021/05/04 07:49:33;;;;;;;7.10;4.83;;;;;;;11.61;41.89;94604.80;1758898;81;21096;-51
2021/05/04 07:51:54;;;;;;;4.90;4.50;;;;;;;11.55;42.60;94607.95;1758039;81;21084;-51
2021/05/04 07:54:22;;;;;;;4.47;3.62;;;;;;;11.50;41.88;94607.19;1758850;81;21373;-54
2021/05/04 07:56:50;;;;;;;5.17;4.28;;;;;;;11.43;40.03;94603.95;1758812;81;21123;-53
2021/05/04 07:59:19;;;;;;;16.93;4.45;;;;;;;11.35;41.31;94597.96;1758786;81;21052;-53
2021/05/04 08:01:47;;;;;;;3.95;3.65;;;;;;;11.42;41.67;94592.78;1758833;81;21095;-53
2021/05/04 08:04:16;;;;;;;51.80;38.42;;;;;;;11.57;40.87;94591.77;1761663;80;21548;-53
2021/05/04 08:06:44;;;;;;;11.57;9.85;;;;;;;11.76;41.29;94605.75;1764558;80;21927;-53
2021/05/04 08:09:12;;;;;;;47.62;29.10;;;;;;;11.94;40.23;94596.08;1774850;80;21141;-53
2021/05/04 08:11:40;;;;;;;23.62;17.60;;;;;;;12.03;39.51;94589.20;1760184;81;21187;-53
2021/05/04 08:14:08;;;;;;;25.85;20.70;;;;;;;12.10;41.81;94593.02;1757788;80;21152;-55
2021/05/04 08:16:37;;;;;;;14.03;11.68;;;;;;;12.27;39.76;94576.94;1763855;80;21063;-51
2021/05/04 08:19:06;;;;;;;7.97;7.17;;;;;;;12.41;40.53;94583.21;1768972;81;22122;-52
2021/05/04 08:21:34;;;;;;;9.00;6.80;;;;;;;12.39;40.23;94594.70;1768890;81;21099;-53
2021/05/04 08:24:08;;;;;;;19.12;11.97;;;;;;;12.28;40.00;94587.50;1769017;81;21060;-54
2021/05/04 08:26:35;;;;;;;6.35;4.28;;;;;;;12.26;41.13;94595.47;1769062;81;21674;-54
2021/05/04 08:29:03;;;;;;;7.72;5.62;;;;;;;12.37;38.49;94588.87;1764356;81;21145;-58
2021/05/04 08:31:34;;;;;;;4.67;3.87;;;;;;;12.49;40.59;94587.92;1756074;81;22001;-53
2021/05/04 08:34:03;;;;;;;5.03;4.53;;;;;;;12.73;38.77;94588.80;1755523;81;21246;-55
2021/05/04 08:36:31;;;;;;;5.70;4.47;;;;;;;12.89;38.27;94582.30;1755597;81;21121;-54
2021/05/04 08:38:59;;;;;;;6.65;3.87;;;;;;;13.07;38.12;94577.37;1755758;80;21093;-52
2021/05/04 08:41:28;;;;;;;11.22;3.05;;;;;;;13.23;38.81;94584.64;1755935;81;21078;-54
2021/05/04 08:43:56;;;;;;;9.18;5.40;;;;;;;13.37;37.93;94572.14;1755816;81;21452;-52
2021/05/04 08:46:24;;;;;;;3.65;3.20;;;;;;;13.42;38.57;94579.81;1755978;81;21585;-54
2021/05/04 08:48:53;;;;;;;7.12;3.58;;;;;;;13.48;37.87;94577.92;1755882;81;21110;-54
2021/05/04 08:51:22;;;;;;;9.20;8.18;;;;;;;13.54;38.99;94590.63;1755843;81;21614;-53
2021/05/04 08:53:52;;;;;;;5.30;3.42;;;;;;;13.63;38.72;94584.28;1753259;81;21158;-54
2021/05/04 08:56:20;;;;;;;4.10;3.70;;;;;;;13.74;38.31;94587.27;1755965;81;21432;-55
2021/05/04 08:58:49;;;;;;;3.67;3.17;;;;;;;13.81;36.80;94586.30;1755933;81;21110;-53
2021/05/04 09:01:17;;;;;;;5.53;3.70;;;;;;;13.84;36.66;94592.27;1756038;80;21067;-54
2021/05/04 09:03:52;;;;;;;5.28;3.35;;;;;;;13.74;36.74;94592.19;1755805;81;21652;-52
2021/05/04 09:06:31;;;;;;;5.90;3.58;;;;;;;13.70;36.80;94587.47;1756178;80;21083;-53
2021/05/04 09:09:25;;;;;;;4.12;2.50;;;;;;;13.74;35.97;94585.89;1756108;80;21192;-53
2021/05/04 09:11:58;;;;;;;3.75;3.40;;;;;;;13.70;36.31;94589.45;1755598;81;21506;-52
2021/05/04 09:19:56;;;;;;;4.15;3.20;;;;;;;13.84;34.09;94597.05;1756227;81;21546;-55
2021/05/04 09:22:17;;;;;;;7.15;2.77;;;;;;;13.80;33.89;94577.11;1753870;81;21493;-54
2021/05/04 09:24:44;;;;;;;4.03;3.10;;;;;;;13.74;35.15;94578.97;1756040;80;21149;-53
2021/05/04 09:27:16;;;;;;;3.02;2.70;;;;;;;13.73;34.53;94577.45;1756162;81;21498;-54
2021/05/04 09:29:53;;;;;;;4.85;3.22;;;;;;;13.72;34.46;94572.55;1756201;80;21467;-53
2021/05/04 09:32:24;;;;;;;3.05;2.85;;;;;;;13.79;35.06;94579.09;1756084;81;21155;-52
2021/05/04 09:34:59;;;;;;;3.52;2.70;;;;;;;13.93;34.49;94576.22;1756179;81;21437;-52
2021/05/04 09:37:33;;;;;;;3.45;3.15;;;;;;;14.06;34.51;94581.67;1756000;80;21602;-51
2021/05/04 09:40:28;;;;;;;7.42;3.00;;;;;;;14.21;34.47;94595.56;1756052;80;21177;-53
2021/05/04 09:43:06;;;;;;;3.17;2.70;;;;;;;14.26;34.17;94583.83;1756010;81;21075;-53
2021/05/04 09:45:52;;;;;;;5.17;2.75;;;;;;;14.12;32.50;94581.76;1756034;80;21078;-53
2021/05/04 09:48:31;;;;;;;6.95;2.72;;;;;;;13.92;33.62;94578.84;1756012;80;22985;-52
2021/05/04 09:51:05;;;;;;;5.45;2.70;;;;;;;13.83;33.63;94573.40;1756025;80;21132;-52
2021/05/04 09:56:20;;;;;;;4.78;2.92;;;;;;;13.90;33.33;94548.14;1756122;80;21200;-54
2021/05/04 09:58:50;;;;;;;5.85;3.05;;;;;;;13.98;34.06;94560.38;1726903;81;37961;-53
2021/05/04 10:01:20;;;;;;;3.95;2.98;;;;;;;14.11;34.42;94552.57;1756054;80;21367;-54
2021/05/04 10:03:49;;;;;;;9.73;4.85;;;;;;;14.26;33.15;94552.79;1755853;80;21081;-52
2021/05/04 10:06:18;;;;;;;4.45;3.80;;;;;;;14.42;33.70;94555.70;1756020;80;21086;-53
2021/05/04 10:08:48;;;;;;;13.45;3.20;;;;;;;14.62;33.62;94551.05;1756033;81;21452;-53
2021/05/04 10:11:20;;;;;;;10.10;2.85;;;;;;;14.81;34.02;94551.73;1756102;81;21063;-53
2021/05/04 10:13:55;;;;;;;4.47;2.83;;;;;;;15.02;34.05;94550.56;1756074;80;21364;-53
2021/05/04 10:16:30;;;;;;;5.15;2.95;;;;;;;15.23;32.16;94552.17;1755997;80;21138;-53
2021/05/04 10:19:02;;;;;;;2.92;2.65;;;;;;;15.33;32.12;94552.84;1756103;80;21140;-53
2021/05/04 10:21:31;;;;;;;5.00;2.50;;;;;;;15.40;31.13;94559.37;1756065;81;21617;-53
2021/05/04 10:24:00;;;;;;;5.35;2.72;;;;;;;15.43;30.94;94543.92;1756090;80;21089;-54
2021/05/04 10:26:30;;;;;;;2.77;2.47;;;;;;;15.47;30.42;94558.34;1756060;80;21201;-52
2021/05/04 10:29:08;;;;;;;2.90;2.52;;;;;;;15.41;30.33;94556.12;1756109;81;21097;-54
2021/05/04 10:31:41;;;;;;;4.30;3.02;;;;;;;15.48;31.00;94541.84;1756006;80;21224;-54
2021/05/04 10:34:32;;;;;;;5.60;3.00;;;;;;;15.65;32.32;94540.06;1756314;80;21107;-54
2021/05/04 10:37:23;;;;;;;2.55;2.10;;;;;;;15.97;31.32;94535.41;1756119;80;21153;-52
2021/05/04 10:39:51;;;;;;;4.90;2.33;;;;;;;16.29;30.52;94530.24;1755978;80;21267;-52
2021/05/04 10:42:40;;;;;;;8.28;4.05;;;;;;;16.61;30.87;94524.92;1728523;81;21086;-54
2021/05/04 10:45:10;;;;;;;2.62;2.15;;;;;;;16.86;30.94;94528.29;1756073;81;21492;-52
2021/05/04 10:47:47;;;;;;;5.30;2.50;;;;;;;17.16;29.25;94524.60;1756225;80;21482;-54
2021/05/04 10:50:27;;;;;;;5.40;2.20;;;;;;;17.34;28.67;94517.30;1756154;80;21490;-53
2021/05/04 10:52:59;;;;;;;4.03;2.33;;;;;;;17.54;28.43;94511.61;1726617;81;21397;-57
2021/05/04 10:55:56;;;;;;;6.12;2.45;;;;;;;17.77;29.06;94512.62;1756057;81;21538;-54
2021/05/04 10:58:30;;;;;;;3.02;2.20;;;;;;;18.03;28.30;94511.09;1756059;80;21157;-55
2021/05/04 11:01:04;;;;;;;2.50;1.95;;;;;;;18.24;27.82;94515.33;1756259;80;21625;-53
2021/05/04 11:03:41;;;;;;;2.45;2.02;;;;;;;18.25;28.23;94509.89;1756203;81;21538;-52
2021/05/04 11:06:29;;;;;;;3.67;2.25;;;;;;;18.47;27.65;94503.65;1751330;80;21372;-54
2021/05/04 11:09:08;;;;;;;6.87;1.80;;;;;;;18.76;26.81;94508.13;1750489;80;21093;-53
2021/05/04 11:11:42;;;;;;;3.42;1.72;;;;;;;19.19;26.52;94499.66;1750610;80;21507;-55
2021/05/04 11:14:23;;;;;;;1.62;1.52;;;;;;;19.28;25.59;94496.61;1750671;81;21154;-56
2021/05/04 11:16:58;;;;;;;9.48;1.90;;;;;;;19.34;25.42;94493.82;1750672;82;21129;-53
2021/05/04 11:19:37;;;;;;;2.58;1.85;;;;;;;19.54;25.38;94491.48;1750549;80;21455;-53
2021/05/04 11:22:15;;;;;;;6.28;1.77;;;;;;;19.83;25.70;94490.91;1750493;80;21794;-54
2021/05/04 11:24:48;;;;;;;7.30;1.77;;;;;;;20.20;23.89;94505.25;1750680;82;21423;-54
2021/05/04 11:27:23;;;;;;;3.00;1.50;;;;;;;20.40;24.53;94492.31;1750608;80;21082;-54
2021/05/04 11:29:54;;;;;;;3.37;1.98;;;;;;;20.46;23.86;94501.42;1750569;80;21583;-53
2021/05/04 11:32:29;;;;;;;5.12;1.70;;;;;;;20.36;24.99;94495.38;1750745;81;21197;-58
2021/05/04 11:35:00;;;;;;;2.10;1.40;;;;;;;20.37;25.02;94472.40;1750573;82;21107;-53
2021/05/04 11:37:36;;;;;;;2.45;1.50;;;;;;;20.61;23.55;94490.66;1750599;80;21093;-55
2021/05/04 11:40:17;;;;;;;2.47;1.42;;;;;;;20.59;24.46;94479.24;1750578;80;21174;-55
2021/05/04 11:42:59;;;;;;;6.80;1.40;;;;;;;20.51;24.39;94474.07;1750777;80;21066;-54
2021/05/04 11:45:31;;;;;;;9.00;2.37;;;;;;;20.53;25.03;94461.76;1750706;80;21329;-54
2021/05/04 11:48:07;;;;;;;16.27;1.80;;;;;;;20.59;24.32;94465.27;1750649;80;21145;-54
2021/05/04 11:50:37;;;;;;;3.60;1.60;;;;;;;20.60;23.82;94469.58;1750637;80;21475;-52
2021/05/04 11:53:08;;;;;;;4.47;1.70;;;;;;;20.60;23.55;94457.00;1750546;80;21085;-53